Time;durP1;ratioP1;P1;durP2;ratioP2;P2;SDS_P1;SDS_P2;PMS_P1;PMS_P2;Temp;Humidity;BMP_temperature;BMP_pressure;BME280_temperature;BME280_humidity;BME280_pressure;Samples;Min_cycle;Max_cycle;Signal;HPM_P1;HPM_P2
2022/05/10 00:00:35;;;;;;;;;;;;;;;19.75;42.53;102050.44;6107732;23;19921;-77
2022/05/10 00:03:01;;;;;;;;;;;;;;;19.75;42.42;102045.22;6156466;23;19913;-77
2022/05/10 00:05:32;;;;;;;;;;;;;;;19.74;42.66;102046.97;6158361;23;19912;-77
2022/05/10 00:07:58;;;;;;;;;;;;;;;19.74;42.62;102041.75;6132486;23;20241;-77
2022/05/10 00:10:23;;;;;;;;;;;;;;;19.75;42.59;102034.78;6132170;23;19931;-77
2022/05/10 00:12:49;;;;;;;;;;;;;;;19.74;42.55;102033.91;6132131;23;20381;-77
2022/05/10 00:15:14;;;;;;;;;;;;;;;19.72;42.76;102031.28;6132966;23;20240;-77
2022/05/10 00:17:41;;;;;;;;;;;;;;;19.73;42.64;102026.97;6158410;23;19931;-76
2022/05/10 00:20:08;;;;;;;;;;;;;;;19.72;42.70;102033.91;6158119;23;20343;-76
2022/05/10 00:22:33;;;;;;;;;;;;;;;19.72;42.88;102027.81;6158053;23;20334;-76
2022/05/10 00:24:59;;;;;;;;;;;;;;;19.72;42.87;102028.69;6158327;23;19916;-76
2022/05/10 00:27:24;;;;;;;;;;;;;;;19.71;42.83;102019.13;6107648;23;19913;-76
2022/05/10 00:29:49;;;;;;;;;;;;;;;19.71;42.96;102013.88;6132200;23;20238;-76
2022/05/10 00:32:15;;;;;;;;;;;;;;;19.72;42.98;102009.53;6131992;23;19909;-76
2022/05/10 00:34:40;;;;;;;;;;;;;;;19.72;43.02;102001.69;6132886;23;19958;-76
2022/05/10 00:37:06;;;;;;;;;;;;;;;19.72;43.07;102009.53;6107363;23;19923;-76
2022/05/10 00:39:32;;;;;;;;;;;;;;;19.72;43.06;102006.91;6107444;23;19916;-76
2022/05/10 00:42:10;;;;;;;;;;;;;;;19.71;43.12;102006.06;6107473;23;19919;-76
2022/05/10 00:44:42;;;;;;;;;;;;;;;19.71;43.23;102002.59;6131904;23;19919;-76
2022/05/10 00:47:16;;;;;;;;;;;;;;;19.70;43.24;101999.06;6131564;23;19913;-76
2022/05/10 00:49:45;;;;;;;;;;;;;;;19.71;43.28;102002.59;6131568;23;19908;-76
2022/05/10 00:52:18;;;;;;;;;;;;;;;19.70;43.13;101999.06;6157681;23;19908;-76
2022/05/10 00:54:53;;;;;;;;;;;;;;;19.71;43.23;101997.34;6157844;23;19909;-76
2022/05/10 00:57:21;;;;;;;;;;;;;;;19.72;43.27;101996.47;6157528;23;20388;-76
2022/05/10 00:59:49;;;;;;;;;;;;;;;19.72;43.39;101992.09;6131239;23;19920;-76
2022/05/10 01:02:38;;;;;;;;;;;;;;;19.72;43.28;101988.63;6131908;23;19916;-76
2022/05/10 01:05:23;;;;;;;;;;;;;;;19.72;43.42;101986.03;6131017;23;19947;-76
2022/05/10 01:07:57;;;;;;;;;;;;;;;19.71;43.42;101979.06;6131455;23;19944;-76
2022/05/10 01:10:42;;;;;;;;;;;;;;;19.71;43.48;101971.25;6131785;23;19912;-76
2022/05/10 01:13:22;;;;;;;;;;;;;;;19.71;43.50;101973.84;6157672;23;19963;-76
2022/05/10 01:15:59;;;;;;;;;;;;;;;19.71;43.52;101959.06;6158029;23;19912;-76
2022/05/10 01:18:24;;;;;;;;;;;;;;;19.70;43.50;101962.50;6131816;23;20043;-76
2022/05/10 01:20:53;;;;;;;;;;;;;;;19.70;43.63;101954.69;6131690;23;20330;-76
2022/05/10 01:23:32;;;;;;;;;;;;;;;19.71;43.60;101956.44;6157562;23;19917;-76
2022/05/10 01:25:57;;;;;;;;;;;;;;;19.71;43.81;101950.34;6157773;23;19912;-76
2022/05/10 01:28:30;;;;;;;;;;;;;;;19.71;43.57;101938.16;6158003;23;19947;-76
2022/05/10 01:30:58;;;;;;;;;;;;;;;19.72;43.67;101939.88;6131387;23;20282;-77
2022/05/10 01:33:46;;;;;;;;;;;;;;;19.70;43.62;101936.41;6131401;23;19940;-76
2022/05/10 01:36:30;;;;;;;;;;;;;;;19.71;43.77;101937.28;6131248;23;19936;-76
2022/05/10 01:39:08;;;;;;;;;;;;;;;19.70;43.68;101928.56;6131052;23;19917;-76
2022/05/10 01:41:37;;;;;;;;;;;;;;;19.71;43.83;101930.31;6157577;23;19919;-76
2022/05/10 01:44:25;;;;;;;;;;;;;;;19.71;43.69;101925.09;6130983;23;19944;-76
2022/05/10 01:46:54;;;;;;;;;;;;;;;19.70;43.75;101912.88;6157664;23;19988;-76
2022/05/10 01:49:27;;;;;;;;;;;;;;;19.71;43.73;101912.03;6131516;23;19909;-76
2022/05/10 01:51:55;;;;;;;;;;;;;;;19.71;43.83;101903.34;6157574;23;19991;-76
2022/05/10 01:54:38;;;;;;;;;;;;;;;19.71;43.91;101913.78;6157107;23;19909;-76
2022/05/10 01:57:04;;;;;;;;;;;;;;;19.71;43.97;101900.72;6130979;23;19909;-77
2022/05/10 01:59:29;;;;;;;;;;;;;;;19.71;43.97;101898.13;6132150;23;19908;-76
2022/05/10 02:01:56;;;;;;;;;;;;;;;19.72;43.96;101905.94;6157355;23;19913;-76
2022/05/10 02:04:25;;;;;;;;;;;;;;;19.72;43.95;101902.44;6156935;23;19952;-76
2022/05/10 02:07:03;;;;;;;;;;;;;;;19.72;43.95;101902.44;6130873;23;19963;-76
2022/05/10 02:09:33;;;;;;;;;;;;;;;19.71;44.07;101888.53;6131118;23;19919;-77
2022/05/10 02:12:02;;;;;;;;;;;;;;;19.71;44.10;101888.53;6157219;23;19963;-76
2022/05/10 02:14:31;;;;;;;;;;;;;;;19.71;44.02;101888.53;6131514;23;19919;-76
2022/05/10 02:16:59;;;;;;;;;;;;;;;19.72;44.03;101892.00;6157274;23;19909;-76
2022/05/10 02:19:27;;;;;;;;;;;;;;;19.72;44.11;101885.03;6132484;23;19936;-76
2022/05/10 02:22:01;;;;;;;;;;;;;;;19.71;44.18;101880.69;6157248;23;20270;-75
2022/05/10 02:24:29;;;;;;;;;;;;;;;19.72;44.21;101881.56;6157050;23;19944;-76
2022/05/10 02:26:58;;;;;;;;;;;;;;;19.71;44.22;101878.09;6130854;23;19908;-77
2022/05/10 02:29:26;;;;;;;;;;;;;;;19.71;44.17;101870.25;6131045;23;19909;-76
2022/05/10 02:34:42;;;;;;;;;;;;;;;19.70;44.14;101870.25;6156958;23;19915;-76
2022/05/10 02:37:07;;;;;;;;;;;;;;;19.71;44.30;101869.41;6130912;23;19926;-77
2022/05/10 02:39:32;;;;;;;;;;;;;;;19.71;44.29;101866.78;6130903;23;19913;-77
2022/05/10 02:41:58;;;;;;;;;;;;;;;19.71;44.38;101866.78;6157296;23;19912;-75
2022/05/10 02:44:23;;;;;;;;;;;;;;;19.71;44.22;101862.41;6156943;23;20344;-76
2022/05/10 02:46:49;;;;;;;;;;;;;;;19.71;44.33;101851.97;6131595;23;19999;-78
2022/05/10 02:49:14;;;;;;;;;;;;;;;19.71;44.29;101856.34;6131117;23;20044;-78
2022/05/10 02:51:39;;;;;;;;;;;;;;;19.71;44.32;101851.13;6130916;23;19920;-78
2022/05/10 02:54:07;;;;;;;;;;;;;;;19.71;44.33;101854.59;6157237;23;19995;-75
2022/05/10 02:56:32;;;;;;;;;;;;;;;19.72;44.47;101845.84;6156940;23;19908;-76
2022/05/10 02:59:07;;;;;;;;;;;;;;;19.72;44.30;101842.38;6131104;23;20004;-78
2022/05/10 03:01:41;;;;;;;;;;;;;;;19.73;44.24;101842.41;6156817;23;19916;-78
2022/05/10 03:04:07;;;;;;;;;;;;;;;19.72;44.36;101834.56;6130822;23;19992;-77
2022/05/10 03:06:32;;;;;;;;;;;;;;;19.72;44.34;101835.41;6130563;23;19909;-76
2022/05/10 03:08:58;;;;;;;;;;;;;;;19.72;44.37;101837.16;6156969;23;19912;-78
2022/05/10 03:11:24;;;;;;;;;;;;;;;19.71;44.49;101835.44;6157283;23;19912;-77
2022/05/10 03:13:49;;;;;;;;;;;;;;;19.72;44.55;101835.41;6157012;23;20251;-78
2022/05/10 03:16:16;;;;;;;;;;;;;;;19.72;44.45;101829.34;6130561;23;19939;-78
2022/05/10 03:18:42;;;;;;;;;;;;;;;19.72;44.43;101831.94;6156640;23;19909;-78
2022/05/10 03:21:07;;;;;;;;;;;;;;;19.71;44.52;101825.00;6158788;23;19919;-78
2022/05/10 03:23:32;;;;;;;;;;;;;;;19.72;44.40;101829.34;6161750;23;19920;-77
2022/05/10 03:25:58;;;;;;;;;;;;;;;19.72;44.42;101824.09;6132534;23;19920;-78
2022/05/10 03:28:24;;;;;;;;;;;;;;;19.72;44.40;101816.28;6132680;23;19915;-78
2022/05/10 03:30:49;;;;;;;;;;;;;;;19.73;44.50;101820.63;6132757;23;19912;-78
2022/05/10 03:33:15;;;;;;;;;;;;;;;19.73;44.49;101810.19;6158658;23;19967;-78
2022/05/10 03:35:40;;;;;;;;;;;;;;;19.73;44.47;101812.81;6132401;23;19920;-78
2022/05/10 03:38:05;;;;;;;;;;;;;;;19.72;44.47;101811.06;6132524;23;19924;-77
2022/05/10 03:40:31;;;;;;;;;;;;;;;19.73;44.56;101810.19;6132627;23;19912;-77
2022/05/10 03:42:56;;;;;;;;;;;;;;;19.72;44.52;101806.69;6158446;23;19920;-78
2022/05/10 03:45:22;;;;;;;;;;;;;;;19.72;44.57;101813.66;6158788;23;19944;-78
2022/05/10 03:47:48;;;;;;;;;;;;;;;19.72;44.63;101808.44;6158720;23;19913;-76
2022/05/10 03:50:14;;;;;;;;;;;;;;;19.73;44.51;101812.81;6158319;23;19908;-76
2022/05/10 03:52:40;;;;;;;;;;;;;;;19.73;44.51;101808.44;6158617;23;20243;-78
2022/05/10 03:55:11;;;;;;;;;;;;;;;19.73;44.50;101805.84;6158935;23;19936;-78
2022/05/10 03:57:36;;;;;;;;;;;;;;;19.74;44.51;101798.84;6158415;23;19919;-78
2022/05/10 04:00:04;;;;;;;;;;;;;;;19.73;44.50;101802.34;6158510;23;19917;-78
2022/05/10 04:02:31;;;;;;;;;;;;;;;19.73;44.48;101799.75;6157620;23;21540;-77
2022/05/10 04:04:56;;;;;;;;;;;;;;;19.75;44.61;101799.72;6158877;23;19920;-75
2022/05/10 04:07:22;;;;;;;;;;;;;;;19.73;44.53;101787.56;6158913;23;19954;-75
2022/05/10 04:09:47;;;;;;;;;;;;;;;19.73;44.49;101786.69;6132649;23;20337;-75
2022/05/10 04:12:12;;;;;;;;;;;;;;;19.73;44.41;101784.94;6132446;23;20035;-78
2022/05/10 04:14:37;;;;;;;;;;;;;;;19.76;44.52;101785.81;6158265;23;19967;-77
2022/05/10 04:17:03;;;;;;;;;;;;;;;19.75;44.72;101790.16;6158677;23;19913;-77
2022/05/10 04:19:28;;;;;;;;;;;;;;;19.75;44.33;101777.09;6158719;23;19963;-77
2022/05/10 04:21:54;;;;;;;;;;;;;;;19.73;44.55;101771.88;6158831;23;20376;-77
2022/05/10 04:24:19;;;;;;;;;;;;;;;19.75;44.49;101779.72;6131946;23;20352;-76
2022/05/10 04:26:45;;;;;;;;;;;;;;;19.76;44.55;101775.34;6132673;23;20356;-76
2022/05/10 04:29:10;;;;;;;;;;;;;;;19.76;44.55;101772.75;6132038;23;19909;-76
2022/05/10 04:31:36;;;;;;;;;;;;;;;19.76;44.50;101767.53;6132092;23;19992;-76
2022/05/10 04:34:01;;;;;;;;;;;;;;;19.74;44.53;101762.28;6158753;23;19913;-75
2022/05/10 04:36:26;;;;;;;;;;;;;;;19.76;44.55;101768.38;6158312;23;19912;-78
2022/05/10 04:38:52;;;;;;;;;;;;;;;19.77;44.54;101764.03;6158509;23;19923;-77
2022/05/10 04:41:28;;;;;;;;;;;;;;;19.77;44.58;101762.28;6158268;23;19912;-77
2022/05/10 04:43:59;;;;;;;;;;;;;;;19.76;44.64;101760.56;6158103;23;19912;-76
2022/05/10 04:46:25;;;;;;;;;;;;;;;19.77;44.69;101767.50;6158219;23;19913;-77
2022/05/10 04:48:50;;;;;;;;;;;;;;;19.78;44.67;101760.56;6158973;23;19940;-75
2022/05/10 04:51:16;;;;;;;;;;;;;;;19.78;44.73;101757.94;6158597;23;19936;-77
2022/05/10 04:53:41;;;;;;;;;;;;;;;19.79;44.57;101762.28;6158014;23;19908;-76
2022/05/10 04:56:06;;;;;;;;;;;;;;;19.78;44.59;101764.03;6132234;23;19912;-77
2022/05/10 04:58:32;;;;;;;;;;;;;;;19.79;44.65;101764.88;6131806;23;19909;-77
2022/05/10 05:01:00;;;;;;;;;;;;;;;19.78;44.66;101766.63;6158113;23;19951;-77
2022/05/10 05:03:26;;;;;;;;;;;;;;;19.78;44.66;101766.63;6157978;23;19917;-76
2022/05/10 05:05:51;;;;;;;;;;;;;;;19.78;44.51;101760.56;6157971;23;20326;-76
2022/05/10 05:08:16;;;;;;;;;;;;;;;19.78;44.73;101761.41;6157904;23;19913;-77
2022/05/10 05:10:41;;;;;;;;;;;;;;;19.79;44.60;101765.75;6158126;23;19939;-77
2022/05/10 05:13:07;;;;;;;;;;;;;;;19.75;44.82;101761.44;6131387;23;20218;-82
2022/05/10 05:15:32;;;;;;;;;;;;;;;19.88;45.09;101757.91;6107517;23;19936;-85
2022/05/10 05:17:57;;;;;;;;;;;;;;;20.00;45.19;101759.56;6132308;23;20012;-83
2022/05/10 05:20:23;;;;;;;;;;;;;;;20.07;45.19;101768.25;6131812;23;19935;-83
2022/05/10 05:22:48;;;;;;;;;;;;;;;20.09;45.25;101761.25;6131479;23;19967;-84
2022/05/10 05:25:15;;;;;;;;;;;;;;;20.12;45.26;101756.00;6107641;23;20003;-79
2022/05/10 05:27:40;;;;;;;;;;;;;;;20.13;45.32;101757.75;6157487;23;20335;-82
2022/05/10 05:30:06;;;;;;;;;;;;;;;20.11;45.24;101754.28;6107799;23;19995;-81
2022/05/10 05:32:34;;;;;;;;;;;;;;;20.06;45.26;101749.09;6157778;23;20274;-81
2022/05/10 05:35:00;;;;;;;;;;;;;;;20.03;45.21;101746.47;6157800;23;19908;-80
2022/05/10 05:37:34;;;;;;;;;;;;;;;20.01;45.11;101750.88;6131449;23;20231;-82
2022/05/10 05:40:00;;;;;;;;;;;;;;;20.00;45.05;101749.13;6133753;23;19995;-81
2022/05/10 05:42:25;;;;;;;;;;;;;;;19.99;45.08;101746.50;6131602;23;19908;-81
2022/05/10 05:44:51;;;;;;;;;;;;;;;19.99;44.96;101747.41;6131433;23;19936;-79
2022/05/10 05:47:17;;;;;;;;;;;;;;;19.98;44.90;101750.88;6131060;23;19908;-79
2022/05/10 05:49:42;;;;;;;;;;;;;;;19.97;44.72;101746.53;6157047;23;20373;-79
2022/05/10 05:52:07;;;;;;;;;;;;;;;19.98;44.78;101743.03;6106887;23;19913;-79
2022/05/10 05:54:33;;;;;;;;;;;;;;;19.98;44.71;101732.56;6106674;23;20293;-79
2022/05/10 05:57:03;;;;;;;;;;;;;;;19.99;44.79;101730.81;6131290;23;19912;-81
2022/05/10 05:59:28;;;;;;;;;;;;;;;19.99;44.69;101720.38;6130796;23;19908;-80
2022/05/10 06:01:54;;;;;;;;;;;;;;;19.98;44.75;101726.50;6157522;23;19980;-80
2022/05/10 06:04:20;;;;;;;;;;;;;;;19.98;44.76;101722.13;6131522;23;20223;-80
2022/05/10 06:06:45;;;;;;;;;;;;;;;19.98;44.63;101724.75;6131416;23;19917;-80
2022/05/10 06:09:10;;;;;;;;;;;;;;;19.98;44.46;101719.53;6106606;23;19912;-82
2022/05/10 06:11:35;;;;;;;;;;;;;;;19.98;44.51;101723.88;6132192;23;19916;-78
2022/05/10 06:14:01;;;;;;;;;;;;;;;19.98;44.26;101727.34;6106669;23;20349;-79
2022/05/10 06:16:27;;;;;;;;;;;;;;;19.98;44.38;101722.13;6130987;23;20394;-80
2022/05/10 06:18:52;;;;;;;;;;;;;;;19.98;44.32;101723.88;6131180;23;19915;-80
2022/05/10 06:21:18;;;;;;;;;;;;;;;19.98;44.45;101721.28;6106700;23;19920;-79
2022/05/10 06:23:43;;;;;;;;;;;;;;;20.01;44.33;101719.53;6106620;23;19968;-80
2022/05/10 06:26:08;;;;;;;;;;;;;;;20.04;44.50;101716.00;6106582;23;19913;-79
2022/05/10 06:28:34;;;;;;;;;;;;;;;20.07;44.36;101714.22;6157269;23;20344;-79
2022/05/10 06:30:59;;;;;;;;;;;;;;;20.07;44.43;101713.38;6131245;23;19916;-83
2022/05/10 06:33:24;;;;;;;;;;;;;;;20.08;44.35;101702.91;6106663;23;19952;-80
2022/05/10 06:35:50;;;;;;;;;;;;;;;20.07;44.36;101700.31;6130986;23;19913;-82
2022/05/10 06:38:27;;;;;;;;;;;;;;;20.08;44.42;101696.84;6106158;23;20277;-81
2022/05/10 06:40:52;;;;;;;;;;;;;;;20.07;44.40;101688.09;6131155;23;20281;-84
2022/05/10 06:43:18;;;;;;;;;;;;;;;20.09;44.33;101685.50;6156835;23;19917;-80
2022/05/10 06:45:43;;;;;;;;;;;;;;;20.09;44.23;101681.13;6130983;23;19909;-80
2022/05/10 06:48:09;;;;;;;;;;;;;;;20.10;44.39;101680.25;6156868;23;19912;-82
2022/05/10 06:50:35;;;;;;;;;;;;;;;20.10;44.25;101677.66;6156747;23;19936;-81
2022/05/10 06:53:01;;;;;;;;;;;;;;;20.12;44.34;101680.22;6130972;23;19963;-79
2022/05/10 06:55:27;;;;;;;;;;;;;;;20.12;44.17;101670.66;6107828;23;19912;-81
2022/05/10 06:57:53;;;;;;;;;;;;;;;20.13;44.28;101667.16;6132853;23;19934;-80
2022/05/10 07:00:19;;;;;;;;;;;;;;;20.14;44.35;101662.78;6132561;23;19923;-81
2022/05/10 07:02:45;;;;;;;;;;;;;;;20.13;43.93;101669.78;6132536;23;20015;-81
2022/05/10 07:05:11;;;;;;;;;;;;;;;20.15;44.19;101667.16;6132812;23;19936;-81
2022/05/10 07:07:37;;;;;;;;;;;;;;;20.15;44.24;101667.16;6132801;23;19916;-81
2022/05/10 07:10:04;;;;;;;;;;;;;;;20.17;44.23;101659.31;6132783;23;19959;-82
2022/05/10 07:12:29;;;;;;;;;;;;;;;20.17;44.21;101662.78;6132562;23;19913;-81
2022/05/10 07:14:54;;;;;;;;;;;;;;;20.18;44.17;101661.03;6108410;23;19912;-81
2022/05/10 07:17:20;;;;;;;;;;;;;;;20.18;44.14;101654.06;6132494;23;19909;-81
2022/05/10 07:19:45;;;;;;;;;;;;;;;20.19;44.22;101650.59;6108191;23;20341;-80
2022/05/10 07:22:10;;;;;;;;;;;;;;;20.20;44.12;101657.53;6108356;23;20309;-82
2022/05/10 07:24:35;;;;;;;;;;;;;;;20.21;44.17;101651.44;6158539;23;19936;-82
2022/05/10 07:27:01;;;;;;;;;;;;;;;20.21;44.20;101656.66;6108174;23;19918;-82
2022/05/10 07:29:26;;;;;;;;;;;;;;;20.23;44.15;101660.13;6132862;23;20245;-82
2022/05/10 07:31:53;;;;;;;;;;;;;;;20.25;44.01;101662.72;6108423;23;19913;-82
2022/05/10 07:34:18;;;;;;;;;;;;;;;20.25;44.07;101661.00;6132583;23;19924;-80
2022/05/10 07:36:43;;;;;;;;;;;;;;;20.27;44.07;101659.25;6108783;23;19917;-81
2022/05/10 07:39:10;;;;;;;;;;;;;;;20.31;44.09;101655.69;6108033;23;20253;-82
2022/05/10 07:41:36;;;;;;;;;;;;;;;20.34;44.04;101647.00;6132429;23;19908;-81
2022/05/10 07:44:02;;;;;;;;;;;;;;;20.44;43.82;101647.75;6132187;23;20326;-80
2022/05/10 07:46:27;;;;;;;;;;;;;;;20.55;43.66;101649.38;6158634;23;19913;-81
2022/05/10 07:48:53;;;;;;;;;;;;;;;20.61;43.69;101638.06;6132748;23;20317;-81
2022/05/10 07:51:19;;;;;;;;;;;;;;;20.57;43.83;101638.06;6108056;23;19997;-83
2022/05/10 07:53:44;;;;;;;;;;;;;;;20.53;43.69;101634.59;6108026;23;19916;-80
2022/05/10 07:56:10;;;;;;;;;;;;;;;20.49;43.92;101633.78;6107833;23;20226;-81
2022/05/10 07:58:35;;;;;;;;;;;;;;;20.50;43.83;101639.88;6132690;23;19979;-81
2022/05/10 08:01:01;;;;;;;;;;;;;;;20.47;43.91;101624.19;6107794;23;19920;-82
2022/05/10 08:03:26;;;;;;;;;;;;;;;20.46;43.88;101622.47;6107717;23;20326;-81
2022/05/10 08:05:54;;;;;;;;;;;;;;;20.46;43.75;101631.19;6158175;23;20240;-81
2022/05/10 08:08:20;;;;;;;;;;;;;;;20.46;43.82;101633.78;6132121;23;19923;-81
2022/05/10 08:10:46;;;;;;;;;;;;;;;20.50;43.86;101637.25;6107793;23;19913;-80
2022/05/10 08:13:12;;;;;;;;;;;;;;;20.60;43.73;101638.94;6132312;23;19940;-81
2022/05/10 08:15:38;;;;;;;;;;;;;;;20.60;43.71;101633.72;6132039;23;19939;-81
2022/05/10 08:18:04;;;;;;;;;;;;;;;20.59;43.65;101631.97;6108567;23;20318;-80
2022/05/10 08:20:29;;;;;;;;;;;;;;;20.64;43.58;101632.78;6132380;23;19908;-81
2022/05/10 08:22:54;;;;;;;;;;;;;;;20.64;43.60;101630.16;6107360;23;19921;-80
2022/05/10 08:25:20;;;;;;;;;;;;;;;20.65;43.73;101623.22;6158586;23;19983;-81
2022/05/10 08:27:45;;;;;;;;;;;;;;;20.63;43.72;101622.34;6132005;23;19920;-78
2022/05/10 08:30:10;;;;;;;;;;;;;;;20.63;43.67;101619.75;6131817;23;20326;-82
2022/05/10 08:32:36;;;;;;;;;;;;;;;20.62;43.72;101633.69;6131724;23;19912;-79
2022/05/10 08:35:01;;;;;;;;;;;;;;;20.63;43.90;101628.44;6131755;23;19908;-80
2022/05/10 08:37:26;;;;;;;;;;;;;;;20.65;43.90;101633.66;6158584;23;19920;-80
2022/05/10 08:39:51;;;;;;;;;;;;;;;20.66;43.83;101630.16;6131826;23;19913;-80
2022/05/10 08:42:17;;;;;;;;;;;;;;;20.68;43.73;101625.78;6158043;23;19916;-80
2022/05/10 08:44:42;;;;;;;;;;;;;;;20.66;43.84;101624.94;6131665;23;19913;-79
2022/05/10 08:47:10;;;;;;;;;;;;;;;20.63;43.84;101610.13;6132096;23;19944;-80
2022/05/10 08:49:51;;;;;;;;;;;;;;;20.63;43.79;101620.59;6131695;23;20015;-80
2022/05/10 08:52:17;;;;;;;;;;;;;;;20.65;43.87;101628.44;6131806;23;19915;-79
2022/05/10 08:54:43;;;;;;;;;;;;;;;20.66;43.68;101630.16;6131744;23;19916;-80
2022/05/10 08:57:12;;;;;;;;;;;;;;;20.66;43.82;101638.00;6131945;23;19909;-80
2022/05/10 08:59:44;;;;;;;;;;;;;;;20.66;43.79;101641.47;6131942;23;19920;-79
2022/05/10 09:02:17;;;;;;;;;;;;;;;20.65;43.70;101646.75;6132550;23;20241;-79
2022/05/10 09:04:45;;;;;;;;;;;;;;;20.63;43.77;101643.28;6131693;23;20314;-80
2022/05/10 09:07:11;;;;;;;;;;;;;;;20.62;43.71;101650.25;6157583;23;20251;-79
2022/05/10 09:09:47;;;;;;;;;;;;;;;20.63;43.89;101645.88;6131870;23;19909;-79
2022/05/10 09:12:18;;;;;;;;;;;;;;;20.63;43.69;101658.97;6157650;23;19912;-80
2022/05/10 09:14:49;;;;;;;;;;;;;;;20.63;43.82;101653.75;6131663;23;19999;-79
2022/05/10 09:17:16;;;;;;;;;;;;;;;20.62;43.69;101651.97;6131332;23;19959;-79
2022/05/10 09:19:42;;;;;;;;;;;;;;;20.63;43.62;101659.81;6131259;23;19909;-80
2022/05/10 09:22:31;;;;;;;;;;;;;;;20.65;43.62;101665.06;6131303;23;19987;-79
2022/05/10 09:24:59;;;;;;;;;;;;;;;20.67;43.65;101658.06;6104219;23;19912;-80
2022/05/10 09:27:29;;;;;;;;;;;;;;;20.67;43.58;101658.91;6131382;23;20385;-79
2022/05/10 09:29:54;;;;;;;;;;;;;;;20.68;43.79;101662.41;6131209;23;19989;-80
2022/05/10 09:35:14;;;;;;;;;;;;;;;20.71;43.58;101658.00;6157314;23;20336;-79
2022/05/10 09:37:43;;;;;;;;;;;;;;;20.71;43.66;101660.63;6131041;23;19917;-78
2022/05/10 09:40:32;;;;;;;;;;;;;;;20.71;43.56;101668.47;6131199;23;19908;-79
2022/05/10 09:43:10;;;;;;;;;;;;;;;20.71;43.64;101660.63;6131468;23;19913;-79
2022/05/10 09:45:36;;;;;;;;;;;;;;;20.72;43.57;101666.72;6131228;23;19909;-79
2022/05/10 09:48:07;;;;;;;;;;;;;;;20.72;43.76;101667.56;6106938;23;20357;-79
2022/05/10 09:50:39;;;;;;;;;;;;;;;20.74;43.65;101663.19;6131137;23;19909;-80
2022/05/10 09:53:11;;;;;;;;;;;;;;;20.75;43.59;101667.56;6131265;23;19909;-80
2022/05/10 09:55:37;;;;;;;;;;;;;;;20.77;43.50;101658.81;6131119;23;19916;-80
2022/05/10 09:58:17;;;;;;;;;;;;;;;20.75;43.64;101664.94;6130956;23;19909;-80
2022/05/10 10:00:43;;;;;;;;;;;;;;;20.76;43.73;101676.28;6130898;23;19971;-79
2022/05/10 10:03:09;;;;;;;;;;;;;;;20.75;43.61;101667.56;6157059;23;19982;-80
2022/05/10 10:05:35;;;;;;;;;;;;;;;20.75;43.60;101654.50;6157068;23;20369;-80
2022/05/10 10:08:01;;;;;;;;;;;;;;;20.76;43.56;101660.59;6156947;23;19967;-80
2022/05/10 10:10:31;;;;;;;;;;;;;;;20.77;43.51;101664.91;6130795;23;19916;-80
2022/05/10 10:12:56;;;;;;;;;;;;;;;20.77;43.52;101659.69;6155662;23;19943;-79
2022/05/10 10:15:35;;;;;;;;;;;;;;;20.78;43.65;101657.97;6131227;23;20234;-81
2022/05/10 10:18:08;;;;;;;;;;;;;;;20.78;43.58;101671.91;6157170;23;19908;-83
2022/05/10 10:20:37;;;;;;;;;;;;;;;20.78;43.50;101664.06;6157251;23;19963;-84
2022/05/10 10:23:07;;;;;;;;;;;;;;;20.78;43.58;101666.66;6155200;23;20317;-82
2022/05/10 10:25:42;;;;;;;;;;;;;;;20.77;43.46;101654.44;6131775;23;19913;-82
2022/05/10 10:28:25;;;;;;;;;;;;;;;20.77;43.47;101659.69;6157011;23;19984;-81
2022/05/10 10:30:50;;;;;;;;;;;;;;;20.78;43.45;101663.19;6157476;23;19909;-81
2022/05/10 10:33:36;;;;;;;;;;;;;;;20.77;43.43;101651.84;6131121;23;20339;-81
2022/05/10 10:36:02;;;;;;;;;;;;;;;20.78;43.46;101661.44;6120867;23;20241;-81
2022/05/10 10:38:39;;;;;;;;;;;;;;;20.78;43.57;101652.72;6131304;23;19984;-81
2022/05/10 10:41:08;;;;;;;;;;;;;;;20.78;43.52;101655.34;6131371;23;19909;-80
2022/05/10 10:43:38;;;;;;;;;;;;;;;20.79;43.39;101647.47;6131281;23;19966;-80
2022/05/10 10:46:03;;;;;;;;;;;;;;;20.80;43.41;101658.81;6132013;23;19909;-80
2022/05/10 10:48:31;;;;;;;;;;;;;;;20.81;43.39;101663.16;6131142;23;19915;-81
2022/05/10 10:50:56;;;;;;;;;;;;;;;20.81;43.43;101658.78;6131141;23;19909;-82
2022/05/10 10:53:24;;;;;;;;;;;;;;;20.82;43.40;101664.88;6157718;23;19960;-80
2022/05/10 10:56:10;;;;;;;;;;;;;;;20.82;43.29;101646.56;6131227;23;20234;-82
2022/05/10 10:58:54;;;;;;;;;;;;;;;20.82;43.23;101646.56;6157653;23;19909;-81
2022/05/10 11:01:43;;;;;;;;;;;;;;;20.84;43.05;101650.03;6131517;23;19954;-81
2022/05/10 11:04:25;;;;;;;;;;;;;;;20.83;43.11;101649.16;6131564;23;20235;-84
2022/05/10 11:06:51;;;;;;;;;;;;;;;20.86;42.89;101651.78;6157219;23;19965;-80
2022/05/10 11:09:32;;;;;;;;;;;;;;;20.87;42.90;101655.25;6106460;23;20349;-83
2022/05/10 11:11:57;;;;;;;;;;;;;;;20.88;42.92;101642.16;6130486;23;19940;-84
2022/05/10 11:14:41;;;;;;;;;;;;;;;20.89;42.73;101650.88;6130466;23;19915;-81
2022/05/10 11:17:19;;;;;;;;;;;;;;;20.90;42.85;101642.13;6130535;23;20214;-81
2022/05/10 11:19:58;;;;;;;;;;;;;;;20.88;42.82;101643.88;6130884;23;19908;-81
2022/05/10 11:22:30;;;;;;;;;;;;;;;20.88;42.97;101655.25;6130666;23;19909;-81
2022/05/10 11:25:26;;;;;;;;;;;;;;;20.88;42.71;101651.72;6132212;23;19963;-87
2022/05/10 11:27:57;;;;;;;;;;;;;;;20.87;42.54;101656.09;6156163;23;19909;-87
2022/05/10 11:30:31;;;;;;;;;;;;;;;20.87;42.32;101653.47;6132730;23;19908;-88
2022/05/10 11:32:56;;;;;;;;;;;;;;;20.88;42.24;101651.72;6134318;23;19919;-87
2022/05/10 11:35:21;;;;;;;;;;;;;;;20.88;42.33;101654.34;6133551;23;19908;-86
2022/05/10 11:38:03;;;;;;;;;;;;;;;20.88;42.25;101651.72;6133451;23;19921;-87
2022/05/10 11:40:39;;;;;;;;;;;;;;;20.88;42.19;101654.34;6133687;23;19909;-89
2022/05/10 11:43:08;;;;;;;;;;;;;;;20.89;42.21;101650.88;6144928;23;20062;-90
2022/05/10 11:45:37;;;;;;;;;;;;;;;20.89;42.27;101664.81;6151490;23;19957;-89
2022/05/10 11:48:15;;;;;;;;;;;;;;;20.91;42.27;101649.09;6154950;23;19936;-89
2022/05/10 11:53:51;;;;;;;;;;;;;;;20.88;42.28;101651.72;6169140;23;19932;-89
2022/05/10 11:56:17;;;;;;;;;;;;;;;20.87;42.42;101663.94;6133903;23;19909;-89
2022/05/10 11:58:43;;;;;;;;;;;;;;;20.86;42.32;101654.38;6133653;23;20336;-89
2022/05/10 12:01:13;;;;;;;;;;;;;;;20.87;42.21;101660.47;6133700;23;20012;-89
2022/05/10 12:03:39;;;;;;;;;;;;;;;20.87;42.24;101642.16;6133508;23;19920;-89
2022/05/10 12:06:22;;;;;;;;;;;;;;;20.88;42.20;101649.13;6133651;23;19909;-89
2022/05/10 12:08:48;;;;;;;;;;;;;;;20.87;42.24;101642.16;6133710;23;19970;-89
2022/05/10 12:11:26;;;;;;;;;;;;;;;20.88;42.30;101643.88;6109051;23;19913;-89
2022/05/10 12:22:08;;;;;;;;;;;;;;;20.91;42.25;101643.88;6159582;23;19937;-89
2022/05/10 12:24:35;;;;;;;;;;;;;;;20.90;42.28;101653.44;6132930;23;19917;-89
2022/05/10 12:27:10;;;;;;;;;;;;;;;20.91;42.35;101649.09;6132905;23;19909;-87
2022/05/10 12:29:35;;;;;;;;;;;;;;;20.91;42.38;101660.44;6133409;23;19931;-90
2022/05/10 12:32:03;;;;;;;;;;;;;;;20.91;42.29;101662.19;6146515;23;20219;-88
2022/05/10 12:34:49;;;;;;;;;;;;;;;20.90;42.21;101670.91;6133725;23;20222;-89
2022/05/10 12:37:27;;;;;;;;;;;;;;;20.89;42.31;101653.47;6133329;23;20202;-89
2022/05/10 12:39:54;;;;;;;;;;;;;;;20.88;42.24;101655.25;6132764;23;19939;-89
2022/05/10 12:42:40;;;;;;;;;;;;;;;20.87;42.37;101658.72;6132703;23;19992;-88
2022/05/10 12:45:05;;;;;;;;;;;;;;;20.88;42.39;101667.44;6102797;23;19913;-89
2022/05/10 12:47:50;;;;;;;;;;;;;;;20.88;42.35;101662.19;6133223;23;19939;-88
2022/05/10 12:50:29;;;;;;;;;;;;;;;20.91;42.36;101654.34;6159721;23;19913;-89
2022/05/10 12:52:55;;;;;;;;;;;;;;;20.91;42.40;101651.72;6132014;23;19955;-87
2022/05/10 12:55:25;;;;;;;;;;;;;;;20.90;42.35;101632.50;6132708;23;19908;-92
2022/05/10 12:58:14;;;;;;;;;;;;;;;20.91;42.36;101641.25;6132523;23;19909;-87
2022/05/10 13:00:48;;;;;;;;;;;;;;;20.91;42.24;101644.72;6124619;23;19967;-90